Time;durP1;ratioP1;P1;durP2;ratioP2;P2;SDS_P1;SDS_P2;PMS_P1;PMS_P2;Temp;Humidity;BMP_temperature;BMP_pressure;BME280_temperature;BME280_humidity;BME280_pressure;Samples;Min_cycle;Max_cycle;Signal;HPM_P1;HPM_P2
2022/06/27 17:09:27;;;;;;;2.00;0.70;;;21.10;99.90;;;;;;3300876;27;20228;-74
2022/06/27 17:11:54;;;;;;;0.57;0.47;;;21.20;99.90;;;;;;4921566;29;20209;-68
2022/06/27 17:14:21;;;;;;;0.60;0.50;;;21.30;99.90;;;;;;4919800;29;20783;-70
2022/06/27 17:16:48;;;;;;;0.60;0.50;;;21.40;99.90;;;;;;4938133;29;20723;-69
2022/06/27 17:19:14;;;;;;;3.17;0.50;;;21.70;99.90;;;;;;4940824;29;20557;-69
2022/06/27 17:21:41;;;;;;;0.40;0.35;;;21.50;99.90;;;;;;4940288;29;20212;-74
2022/06/27 17:24:08;;;;;;;1.02;0.40;;;21.50;99.90;;;;;;4940342;29;20310;-69
2022/06/27 17:26:37;;;;;;;0.60;0.25;;;21.50;99.90;;;;;;4940397;29;20208;-69
2022/06/27 17:29:04;;;;;;;0.43;0.35;;;21.40;99.90;;;;;;4940229;29;20208;-72
2022/06/27 17:31:30;;;;;;;0.77;0.50;;;21.30;99.90;;;;;;4940703;29;20218;-70
2022/06/27 17:33:57;;;;;;;0.70;0.30;;;21.40;99.90;;;;;;4940718;29;20589;-75
2022/06/27 17:36:24;;;;;;;2.00;0.40;;;21.40;99.90;;;;;;4939692;29;20312;-67
2022/06/27 17:38:51;;;;;;;0.77;0.40;;;21.40;99.90;;;;;;4940115;29;20208;-70
2022/06/27 17:41:18;;;;;;;3.35;0.52;;;21.30;99.90;;;;;;4941720;29;20244;-76
2022/06/27 17:43:46;;;;;;;1.10;0.50;;;21.30;99.90;;;;;;4941959;29;20571;-75
2022/06/27 17:46:13;;;;;;;0.57;0.30;;;21.30;99.90;;;;;;4941567;29;20232;-71
2022/06/27 17:48:40;;;;;;;1.15;0.40;;;21.20;99.90;;;;;;4941837;29;20236;-74
2022/06/27 17:51:06;;;;;;;2.10;0.60;;;21.20;99.90;;;;;;4941677;29;20571;-75
2022/06/27 17:53:33;;;;;;;1.15;0.40;;;21.20;99.90;;;;;;4941891;29;20217;-75
2022/06/27 17:56:00;;;;;;;0.70;0.40;;;21.10;99.90;;;;;;4941639;29;20228;-75
2022/06/27 17:58:27;;;;;;;1.00;0.50;;;21.00;99.90;;;;;;4941785;29;20608;-70
2022/06/27 18:00:55;;;;;;;0.95;0.30;;;20.70;99.90;;;;;;4941776;29;20240;-75
2022/06/27 18:03:22;;;;;;;1.15;0.40;;;20.60;99.90;;;;;;4941466;29;20204;-74
2022/06/27 18:05:51;;;;;;;0.77;0.30;;;20.50;99.90;;;;;;4941812;29;20283;-75
2022/06/27 18:08:17;;;;;;;2.35;0.75;;;20.50;99.90;;;;;;4941385;29;20648;-74
2022/06/27 18:10:45;;;;;;;0.70;0.43;;;20.40;99.90;;;;;;4934857;29;20216;-64
2022/06/27 18:13:14;;;;;;;1.13;0.40;;;20.50;99.90;;;;;;4941353;29;20216;-77
2022/06/27 18:15:41;;;;;;;1.05;0.30;;;20.50;99.90;;;;;;4941301;29;20224;-76
2022/06/27 18:18:10;;;;;;;0.85;0.30;;;20.50;99.90;;;;;;4939875;29;20686;-67
2022/06/27 18:20:37;;;;;;;0.60;0.40;;;20.60;99.90;;;;;;4953275;28;20251;-77
2022/06/27 18:23:04;;;;;;;2.47;0.30;;;20.70;99.90;;;;;;4957235;28;20216;-77
2022/06/27 18:25:33;;;;;;;0.90;0.30;;;20.80;99.90;;;;;;4957142;28;20242;-74
2022/06/27 18:28:00;;;;;;;2.85;0.45;;;20.80;99.90;;;;;;4952314;28;20211;-74
2022/06/27 18:30:27;;;;;;;1.45;0.40;;;20.90;99.90;;;;;;4929809;29;20209;-67
2022/06/27 18:32:54;;;;;;;0.45;0.30;;;20.80;99.90;;;;;;4937053;29;20213;-68
2022/06/27 18:35:23;;;;;;;0.65;0.30;;;20.70;99.90;;;;;;4937650;29;20229;-64
2022/06/27 18:37:50;;;;;;;0.50;0.30;;;20.70;99.90;;;;;;4938220;29;20209;-63
2022/06/27 18:40:17;;;;;;;1.60;0.40;;;20.80;99.90;;;;;;4938113;29;20243;-63
2022/06/27 18:42:44;;;;;;;0.80;0.30;;;20.70;99.90;;;;;;4938326;29;20303;-73
2022/06/27 18:45:11;;;;;;;1.15;0.43;;;20.70;99.90;;;;;;4938272;29;20235;-71
2022/06/27 18:47:37;;;;;;;1.02;0.52;;;20.70;99.90;;;;;;4938479;29;20301;-77
2022/06/27 18:50:05;;;;;;;1.20;0.40;;;20.40;99.90;;;;;;4938333;29;20565;-68
2022/06/27 18:52:33;;;;;;;1.17;0.40;;;20.30;99.90;;;;;;4938407;29;20209;-70
2022/06/27 18:55:02;;;;;;;1.25;0.40;;;20.40;99.90;;;;;;4938063;29;20235;-74
2022/06/27 18:57:29;;;;;;;0.68;0.40;;;20.30;99.90;;;;;;4938271;29;20237;-75
2022/06/27 18:59:57;;;;;;;1.05;0.40;;;20.30;99.90;;;;;;4937954;29;20659;-78
2022/06/27 19:02:24;;;;;;;0.90;0.43;;;20.30;99.90;;;;;;4938199;29;20217;-65
2022/06/27 19:04:51;;;;;;;0.50;0.40;;;20.20;99.90;;;;;;4937817;29;20315;-74
2022/06/27 19:07:17;;;;;;;1.02;0.40;;;20.20;99.90;;;;;;4937830;29;20567;-77
2022/06/27 19:09:46;;;;;;;1.15;0.43;;;20.20;99.90;;;;;;4937880;29;20216;-78
2022/06/27 19:12:12;;;;;;;0.50;0.40;;;20.10;99.90;;;;;;4937878;29;20220;-75
2022/06/27 19:14:40;;;;;;;1.90;0.68;;;20.00;99.90;;;;;;4937985;29;20235;-78
2022/06/27 19:17:07;;;;;;;1.17;0.40;;;19.90;99.90;;;;;;4937957;29;20571;-76
2022/06/27 19:19:34;;;;;;;1.38;0.60;;;19.80;99.90;;;;;;4937843;29;20209;-74
2022/06/27 19:22:01;;;;;;;0.77;0.45;;;19.70;99.90;;;;;;4937365;29;20587;-68
2022/06/27 19:24:27;;;;;;;1.00;0.43;;;19.60;99.90;;;;;;4937231;29;20632;-77
2022/06/27 19:26:56;;;;;;;0.90;0.40;;;19.50;99.90;;;;;;4937613;29;20229;-75
2022/06/27 19:29:23;;;;;;;0.57;0.40;;;19.40;99.90;;;;;;4937574;29;20293;-77
2022/06/27 19:31:51;;;;;;;1.58;0.30;;;19.30;99.90;;;;;;4937387;29;20208;-69
2022/06/27 19:34:18;;;;;;;0.63;0.43;;;19.20;99.90;;;;;;4935983;29;20264;-77
2022/06/27 19:36:44;;;;;;;1.02;0.43;;;19.10;99.90;;;;;;4937149;29;20219;-73
2022/06/27 19:39:12;;;;;;;1.58;0.50;;;19.00;99.90;;;;;;4936898;29;20675;-71
2022/06/27 19:41:39;;;;;;;1.35;0.30;;;19.00;99.90;;;;;;4936954;29;20565;-63
2022/06/27 19:44:07;;;;;;;2.75;0.63;;;18.90;99.90;;;;;;4937058;29;20215;-71
2022/06/27 19:46:34;;;;;;;1.40;0.52;;;18.80;99.90;;;;;;4937209;29;20292;-67
2022/06/27 19:49:02;;;;;;;1.88;0.55;;;18.80;99.90;;;;;;4936883;29;20219;-71
2022/06/27 19:51:29;;;;;;;0.75;0.40;;;18.80;99.90;;;;;;4936762;29;20682;-75
2022/06/27 19:53:56;;;;;;;1.27;0.45;;;18.60;99.90;;;;;;4936850;29;20212;-71
2022/06/27 19:56:23;;;;;;;0.50;0.40;;;18.50;99.90;;;;;;4936757;29;20682;-71
2022/06/27 19:58:50;;;;;;;0.90;0.50;;;18.40;99.90;;;;;;4936848;29;20299;-76
2022/06/27 20:01:18;;;;;;;0.73;0.40;;;18.20;99.90;;;;;;4936797;29;20603;-76
2022/06/27 20:03:45;;;;;;;0.80;0.40;;;18.10;99.90;;;;;;4936737;29;20213;-77
2022/06/27 20:06:12;;;;;;;0.50;0.30;;;18.10;99.90;;;;;;4936788;29;20667;-77
2022/06/27 20:08:40;;;;;;;0.82;0.55;;;18.00;99.90;;;;;;4936623;29;20220;-75
2022/06/27 20:11:07;;;;;;;1.25;0.60;;;17.90;99.90;;;;;;4936767;29;20256;-74
2022/06/27 20:13:34;;;;;;;1.20;0.40;;;17.90;99.90;;;;;;4936580;29;20747;-74
2022/06/27 20:16:01;;;;;;;1.13;0.50;;;17.80;99.90;;;;;;4936437;29;20232;-76
2022/06/27 20:18:30;;;;;;;1.00;0.63;;;17.70;99.90;;;;;;4936383;29;20208;-76
2022/06/27 20:20:57;;;;;;;1.03;0.40;;;17.70;99.90;;;;;;4936490;29;20240;-77
2022/06/27 20:23:24;;;;;;;2.27;0.70;;;17.60;99.90;;;;;;4936654;29;20219;-72
2022/06/27 20:25:50;;;;;;;2.30;0.50;;;17.50;99.90;;;;;;4936342;29;20228;-75
2022/06/27 20:28:17;;;;;;;1.03;0.50;;;17.50;99.90;;;;;;4936314;29;20228;-77
2022/06/27 20:30:44;;;;;;;1.37;0.47;;;17.50;99.90;;;;;;4936067;29;20216;-76
2022/06/27 20:33:11;;;;;;;2.80;0.47;;;17.50;99.90;;;;;;4936258;29;20213;-75
2022/06/27 20:35:39;;;;;;;0.90;0.40;;;17.40;99.90;;;;;;4935981;29;20658;-77
2022/06/27 20:38:06;;;;;;;0.67;0.30;;;17.40;99.90;;;;;;4936479;29;20223;-76
2022/06/27 20:40:33;;;;;;;0.80;0.50;;;17.30;99.90;;;;;;4936137;29;20381;-73
2022/06/27 20:43:00;;;;;;;0.40;0.30;;;17.20;99.90;;;;;;4936374;29;20209;-72
2022/06/27 20:45:27;;;;;;;2.03;0.37;;;17.30;99.90;;;;;;4935790;29;20229;-77
2022/06/27 20:47:54;;;;;;;1.60;0.40;;;17.30;99.90;;;;;;4936606;29;20212;-76
2022/06/27 20:50:21;;;;;;;2.60;0.30;;;17.20;99.90;;;;;;4933135;29;20211;-69
2022/06/27 20:52:49;;;;;;;1.23;0.33;;;17.20;99.90;;;;;;4916680;29;20209;-73
2022/06/27 20:55:17;;;;;;;0.87;0.30;;;17.10;99.90;;;;;;4915726;29;20604;-66
2022/06/27 20:57:44;;;;;;;1.23;0.30;;;17.00;99.90;;;;;;4915403;29;20304;-69
2022/06/27 21:00:12;;;;;;;0.90;0.40;;;17.00;99.90;;;;;;4916208;29;20329;-67
2022/06/27 21:02:39;;;;;;;1.03;0.40;;;16.80;99.90;;;;;;4934643;29;20707;-68
2022/06/27 21:05:07;;;;;;;2.20;0.40;;;16.80;99.90;;;;;;4934444;29;20239;-69
2022/06/27 21:11:47;;;;;;;0.60;0.40;;;16.70;99.90;;;;;;4934671;29;20205;-68
2022/06/27 21:13:08;;;;;;;0.80;0.40;;;16.50;99.90;;;;;;4935713;29;20215;-77
2022/06/27 21:15:35;;;;;;;3.70;0.40;;;16.50;99.90;;;;;;4936021;29;20237;-74
2022/06/27 21:18:01;;;;;;;1.73;0.30;;;16.40;99.90;;;;;;4935752;29;20215;-73
2022/06/27 21:20:28;;;;;;;0.50;0.40;;;16.40;99.90;;;;;;4935918;29;20308;-78
2022/06/27 21:22:55;;;;;;;0.77;0.27;;;16.30;99.90;;;;;;4935772;29;20236;-76
2022/06/27 21:25:24;;;;;;;0.60;0.43;;;16.20;99.90;;;;;;4935444;29;20233;-75
2022/06/27 21:27:51;;;;;;;0.80;0.33;;;16.10;99.90;;;;;;4935725;29;20209;-72
2022/06/27 21:30:18;;;;;;;1.27;0.80;;;16.10;99.90;;;;;;4935767;29;20208;-74
2022/06/27 21:32:44;;;;;;;0.67;0.40;;;16.00;99.90;;;;;;4935670;29;20217;-73
2022/06/27 21:35:11;;;;;;;2.47;0.50;;;15.90;99.90;;;;;;4935542;29;20243;-77
2022/06/27 21:37:38;;;;;;;1.50;0.53;;;15.90;99.90;;;;;;4935578;29;20217;-65
2022/06/27 21:40:07;;;;;;;2.17;0.63;;;15.80;99.90;;;;;;4935462;29;20209;-72
2022/06/27 21:42:35;;;;;;;1.47;0.50;;;15.80;99.90;;;;;;4935678;29;20232;-70
2022/06/27 21:45:02;;;;;;;3.53;0.73;;;15.70;99.90;;;;;;4935711;29;20587;-76
2022/06/27 21:47:29;;;;;;;1.03;0.53;;;15.70;99.90;;;;;;4935642;29;20213;-70
2022/06/27 21:49:56;;;;;;;1.90;0.63;;;15.60;99.90;;;;;;4935509;29;20216;-73
2022/06/27 21:52:41;;;;;;;1.93;0.70;;;15.60;99.90;;;;;;4935582;29;20209;-75
2022/06/27 21:55:09;;;;;;;4.23;1.20;;;15.50;99.90;;;;;;4935335;29;20699;-65
2022/06/27 21:57:37;;;;;;;3.47;1.10;;;15.50;99.90;;;;;;4938227;29;20209;-65
2022/06/27 22:00:06;;;;;;;1.17;0.70;;;15.30;99.90;;;;;;4939294;29;20212;-64
